| Date | Time | Temp. (oF) | Dew Point (oF) | Rel. Hum. (%) | Press. (in.) | Wind Dir. | Wind Speed (mph) | Hourly Rainfall (in.) |
|
|---|---|---|---|---|---|---|---|---|---|
| 1 | 05/05 | 00:00 | 48 | 44 | 89 | 29.66 | SE | 1 | 0.00 |
| 2 | 05/04 | 23:00 | 49 | 46 | 90 | 29.65 | E | 4 | 0.00 |
| 3 | 05/04 | 22:00 | 49 | 46 | 90 | 29.66 | ENE | 2 | 0.00 |
| 4 | 05/04 | 21:00 | 50 | 46 | 89 | 29.66 | SE | 2 | 0.00 |
| 5 | 05/04 | 20:00 | 50 | 46 | 87 | 29.64 | ESE | 7 | 0.00 |
| 6 | 05/04 | 19:00 | 52 | 47 | 85 | 29.62 | SE | 0 | 0.00 |
| 7 | 05/04 | 18:00 | 53 | 48 | 84 | 29.61 | E | 8 | 0.00 |
| 8 | 05/04 | 17:00 | 54 | 48 | 83 | 29.60 | ENE | 4 | 0.00 |
| 9 | 05/04 | 16:00 | 54 | 49 | 85 | 29.61 | SE | 3 | 0.00 |
| 10 | 05/04 | 15:00 | 54 | 49 | 84 | 29.62 | ESE | 6 | 0.00 |
| 11 | 05/04 | 14:00 | 53 | 49 | 87 | 29.64 | E | 2 | 0.00 |
| 12 | 05/04 | 13:00 | 53 | 49 | 88 | 29.65 | E | 0 | 0.00 |
| 13 | 05/04 | 12:00 | 51 | 47 | 89 | 29.67 | E | 4 | 0.00 |
| 14 | 05/04 | 11:00 | 52 | 48 | 89 | 29.68 | ESE | 4 | 0.00 |
| 15 | 05/04 | 10:00 | 52 | 49 | 90 | 29.67 | SE | 1 | 0.00 |
| 16 | 05/04 | 09:00 | 51 | 48 | 90 | 29.68 | ENE | 2 | 0.00 |
| 17 | 05/04 | 08:00 | 50 | 47 | 90 | 29.69 | S | 4 | 0.00 |
| 18 | 05/04 | 07:00 | 49 | 46 | 90 | 29.69 | E | 2 | 0.00 |
| 19 | 05/04 | 06:00 | 50 | 47 | 90 | 29.68 | ESE | 4 | 0.02 |
| 20 | 05/04 | 05:00 | 51 | 48 | 90 | 29.69 | E | 0 | 0.04 |
| 21 | 05/04 | 04:00 | 51 | 47 | 89 | 29.69 | SE | 2 | 0.05 |
| 22 | 05/04 | 03:00 | 52 | 48 | 89 | 29.70 | SSE | 0 | 0.03 |
| 23 | 05/04 | 02:00 | 53 | 49 | 89 | 29.71 | SE | 0 | 0.03 |
| 24 | 05/04 | 01:00 | 53 | 49 | 89 | 29.72 | SE | 0 | 0.01 |